METAR Data
IDs: Format: Raw Decoded Include TAF

Data at: 1525 UTC 25 Jan 2020

METAR for:KLRJ (Le Mars Muni, IA, US)
Text:KLRJ 251515Z AUTO 26004KT 10SM OVC021 M03/M04 A3005 RMK AO2
Temperature: -3.0°C ( 27°F)
Dewpoint: -4.0°C ( 25°F) [RH = 93%]
Pressure (altimeter):30.05 inches Hg (1017.7 mb)
Winds:from the W (260 degrees) at 5 MPH (4 knots; 2.1 m/s)
Visibility:10 or more sm (16+ km)
Ceiling:2100 feet AGL
Clouds: overcast cloud deck at 2100 feet AGL
QC Flag:automated observation with no human augmentation